Carencro, Louisiana
Current Conditions -  °F | °C
As of 2:53 PM on Friday 28 Nov 2014 (Local Time) from KLFT Reporting Station
Clear Clear  
Wind Chill: 63°   Ceiling: Unl
Heat Index: 63°   Visibility: 10mi
Dew Point: 44°   Wind: 12mph
Humidity: 50%   Direction: 210°SSW
Pressure: 30.27"   Gusts: NA
Location:  30.32°N, 92.04°W
Report Text: KLFT 282053Z 21010KT 10SM CLR 17/07 A3027 RMK AO2 SLP251 T01720067 56028
Loading
Personal Weather Stations






























Interactive Weather Map New forecast layout! Learn more

10-Day Weather Forecast

Advertisements
Track Severe Weather on mobile